createdAt,value
2019-01-26T00:01:26.576Z,81.40
2019-01-26T00:05:31.765Z,81.20
2019-01-26T00:09:36.867Z,80.80
2019-01-26T00:13:41.947Z,81.10
2019-01-26T00:17:47.036Z,81.30
2019-01-26T00:21:52.128Z,81.30
2019-01-26T00:25:57.199Z,81.30
2019-01-26T00:30:02.321Z,81.10
2019-01-26T00:34:08.608Z,81.40
2019-01-26T00:38:14.684Z,81.30
2019-01-26T00:42:21.087Z,81.20
2019-01-26T00:46:28.561Z,81.20
2019-01-26T00:50:33.965Z,81.10
2019-01-26T00:54:39.034Z,81.10
2019-01-26T00:58:45.178Z,81.00
2019-01-26T01:02:50.279Z,81.00
2019-01-26T01:06:55.379Z,80.90
2019-01-26T01:11:00.447Z,80.90
2019-01-26T01:15:08.149Z,81.20
2019-01-26T01:19:13.261Z,82.00
2019-01-26T01:23:18.317Z,82.40
2019-01-26T01:27:23.419Z,82.80
2019-01-26T01:31:28.486Z,83.00
2019-01-26T01:35:33.603Z,83.30
2019-01-26T01:39:38.691Z,83.30
2019-01-26T01:43:43.788Z,83.80
2019-01-26T01:47:48.994Z,85.90
2019-01-26T01:51:54.176Z,86.60
2019-01-26T01:55:59.284Z,87.00
2019-01-26T02:00:07.471Z,87.40
2019-01-26T02:04:12.568Z,88.20
2019-01-26T02:08:17.712Z,88.80
2019-01-26T02:12:22.779Z,89.30
2019-01-26T02:16:27.891Z,89.80
2019-01-26T02:20:33.971Z,90.30
2019-01-26T02:24:39.068Z,90.80
2019-01-26T02:28:44.196Z,91.70
2019-01-26T02:32:49.271Z,92.20
2019-01-26T02:36:54.442Z,92.60
2019-01-26T02:40:59.512Z,92.70
2019-01-26T02:45:06.431Z,93.00
2019-01-26T02:49:11.501Z,93.20
2019-01-26T02:53:16.609Z,93.40
2019-01-26T02:57:21.718Z,93.60
2019-01-26T03:01:26.788Z,93.80
2019-01-26T03:05:31.888Z,94.10
2019-01-26T03:09:36.944Z,94.20
2019-01-26T03:13:42.059Z,94.40
2019-01-26T03:17:47.146Z,94.50
2019-01-26T03:21:52.262Z,94.50
2019-01-26T03:25:57.346Z,94.50
2019-01-26T03:30:02.423Z,94.30
2019-01-26T03:34:07.552Z,94.70
2019-01-26T03:38:12.622Z,94.70
2019-01-26T03:42:17.745Z,94.80
2019-01-26T03:46:22.816Z,94.80
2019-01-26T03:50:27.919Z,94.80
2019-01-26T03:54:33.005Z,94.90
2019-01-26T03:58:38.171Z,95.00
2019-01-26T04:02:43.232Z,95.00
2019-01-26T04:06:48.358Z,95.00
2019-01-26T04:10:53.423Z,95.00
2019-01-26T04:14:58.532Z,94.90
2019-01-26T04:19:03.655Z,95.20
2019-01-26T04:23:08.778Z,94.90
2019-01-26T04:27:13.854Z,94.90
2019-01-26T04:31:18.962Z,94.90
2019-01-26T04:35:24.038Z,94.90
2019-01-26T04:39:29.135Z,94.90
2019-01-26T04:43:34.249Z,95.10
2019-01-26T04:47:39.301Z,95.30
2019-01-26T04:51:44.427Z,95.30
2019-01-26T04:55:49.498Z,95.40
2019-01-26T04:59:54.659Z,95.30
2019-01-26T05:03:59.726Z,95.40
2019-01-26T05:08:04.898Z,95.40
2019-01-26T05:12:09.919Z,95.60
2019-01-26T05:16:15.012Z,95.70
2019-01-26T05:20:24.884Z,95.70
2019-01-26T05:24:29.983Z,95.70
2019-01-26T05:28:35.068Z,95.60
2019-01-26T05:32:40.158Z,95.50
2019-01-26T05:36:45.223Z,95.50
2019-01-26T05:40:50.315Z,95.40
2019-01-26T05:44:55.440Z,95.30
2019-01-26T05:49:00.512Z,95.30
2019-01-26T05:53:05.731Z,95.40
2019-01-26T05:57:10.831Z,95.40
2019-01-26T06:01:15.908Z,95.50
2019-01-26T06:05:21.013Z,95.40
2019-01-26T06:09:26.105Z,95.50
2019-01-26T06:13:31.163Z,95.40
2019-01-26T06:17:36.291Z,95.50
2019-01-26T06:21:41.360Z,95.40
2019-01-26T06:25:46.473Z,95.40
2019-01-26T06:29:51.526Z,95.40
2019-01-26T06:33:56.779Z,95.40
2019-01-26T06:38:01.870Z,95.40
2019-01-26T06:42:06.936Z,95.50
2019-01-26T06:46:12.062Z,95.30
2019-01-26T06:50:23.124Z,95.40
2019-01-26T06:54:28.227Z,95.40
2019-01-26T06:58:33.326Z,95.50
2019-01-26T07:02:38.408Z,95.70
2019-01-26T07:06:46.075Z,95.80
2019-01-26T07:10:51.199Z,95.80
2019-01-26T07:14:56.270Z,95.80
2019-01-26T07:19:01.379Z,95.80
2019-01-26T07:23:06.482Z,95.90
2019-01-26T07:27:11.655Z,96.10
2019-01-26T07:31:16.748Z,96.10
2019-01-26T07:35:22.120Z,96.20
2019-01-26T07:39:27.217Z,96.60
2019-01-26T07:43:32.308Z,96.00
2019-01-26T07:47:37.383Z,95.80
2019-01-26T07:51:42.499Z,95.30
2019-01-26T07:55:47.597Z,95.50
2019-01-26T07:59:52.690Z,95.50
2019-01-26T08:03:57.863Z,95.70
2019-01-26T08:08:02.981Z,95.60
2019-01-26T08:12:08.043Z,95.70
2019-01-26T08:16:13.138Z,95.90
2019-01-26T08:20:20.248Z,94.80
2019-01-26T08:24:25.417Z,95.30
2019-01-26T08:28:30.518Z,95.50
2019-01-26T08:32:35.599Z,95.60
2019-01-26T08:36:40.734Z,95.60
2019-01-26T08:40:45.830Z,95.60
2019-01-26T08:44:50.939Z,95.70
2019-01-26T08:48:56.027Z,95.70
2019-01-26T08:53:01.143Z,95.60
2019-01-26T08:57:06.241Z,95.80
2019-01-26T09:01:12.331Z,95.90
2019-01-26T09:05:18.082Z,95.80
2019-01-26T09:09:23.209Z,96.00
2019-01-26T09:13:28.291Z,96.20
2019-01-26T09:17:33.404Z,96.20
2019-01-26T09:21:38.506Z,96.30
2019-01-26T09:25:43.806Z,96.30
2019-01-26T09:29:49.039Z,96.30
2019-01-26T09:33:54.130Z,96.30
2019-01-26T09:38:00.382Z,96.30
2019-01-26T09:42:06.135Z,96.20
2019-01-26T09:46:11.587Z,96.20
2019-01-26T09:50:17.011Z,96.30
2019-01-26T09:54:22.227Z,96.20
2019-01-26T09:58:27.540Z,95.90
2019-01-26T10:02:32.866Z,96.30
2019-01-26T10:06:38.032Z,96.40
2019-01-26T10:10:43.483Z,96.60
2019-01-26T10:14:49.059Z,96.70
2019-01-26T10:18:55.517Z,97.00
2019-01-26T10:23:00.862Z,96.70
2019-01-26T10:27:06.217Z,96.60
2019-01-26T10:31:11.773Z,96.70
2019-01-26T10:35:17.123Z,96.90
2019-01-26T10:39:22.579Z,96.90
2019-01-26T10:43:47.586Z,96.80
2019-01-26T10:47:53.687Z,97.00
2019-01-26T10:52:00.040Z,97.20
2019-01-26T10:56:06.401Z,97.20
2019-01-26T11:00:15.031Z,97.20
2019-01-26T11:04:22.937Z,97.30
2019-01-26T11:08:28.610Z,97.10
2019-01-26T11:12:34.156Z,97.00
2019-01-26T11:16:39.611Z,97.10
2019-01-26T11:20:45.175Z,97.20
2019-01-26T11:24:50.720Z,97.20
2019-01-26T11:28:56.299Z,97.10
2019-01-26T11:33:03.058Z,97.20
2019-01-26T11:37:08.404Z,97.10
2019-01-26T11:41:15.291Z,97.00
2019-01-26T11:45:38.562Z,96.90
2019-01-26T11:49:46.677Z,96.80
2019-01-26T11:53:53.152Z,96.90
2019-01-26T11:57:58.602Z,96.70
2019-01-26T12:02:05.699Z,96.90
2019-01-26T12:06:12.751Z,97.00
2019-01-26T12:10:18.370Z,96.90
2019-01-26T12:14:23.799Z,97.00
2019-01-26T12:18:29.358Z,96.20
2019-01-26T12:22:34.806Z,96.30
2019-01-26T12:26:40.263Z,96.20
2019-01-26T12:30:46.018Z,96.20
2019-01-26T12:34:52.956Z,96.20
2019-01-26T12:38:58.459Z,96.60
2019-01-26T12:43:05.407Z,97.00
2019-01-26T12:47:16.940Z,96.70
2019-01-26T12:51:17.891Z,96.70
2019-01-26T12:55:23.444Z,96.40
2019-01-26T12:59:28.901Z,96.70
2019-01-26T13:03:35.997Z,96.80
2019-01-26T13:07:41.558Z,96.50
2019-01-26T13:11:47.611Z,96.90
2019-01-26T13:15:53.198Z,97.00
2019-01-26T13:19:58.769Z,97.00
2019-01-26T13:24:04.687Z,97.20
2019-01-26T13:28:11.298Z,97.30
2019-01-26T13:32:16.821Z,97.30
2019-01-26T13:36:22.582Z,97.40
2019-01-26T13:40:31.036Z,97.50
2019-01-26T13:44:36.662Z,97.40
2019-01-26T13:48:42.317Z,97.10
2019-01-26T13:52:49.105Z,97.10
2019-01-26T13:56:54.694Z,97.20
2019-01-26T14:01:01.242Z,97.40
2019-01-26T14:05:06.909Z,97.30
2019-01-26T14:09:12.448Z,97.20
2019-01-26T14:13:17.902Z,97.30
2019-01-26T14:19:34.973Z,97.30
2019-01-26T14:24:00.258Z,97.20
2019-01-26T14:28:24.504Z,97.10
2019-01-26T14:32:52.552Z,97.20
2019-01-26T14:37:15.092Z,97.40
2019-01-26T14:41:39.484Z,97.20
2019-01-26T14:46:03.719Z,97.10
2019-01-26T14:50:29.609Z,97.00
2019-01-26T14:54:53.798Z,97.10
2019-01-26T14:59:18.299Z,97.30
2019-01-26T15:03:45.357Z,97.40
2019-01-26T15:08:09.877Z,97.40
2019-01-26T15:12:34.152Z,97.50
2019-01-26T15:17:00.597Z,97.40
2019-01-26T15:21:26.331Z,97.40
2019-01-26T15:25:52.054Z,97.50
2019-01-26T15:30:20.671Z,97.40
2019-01-26T15:34:44.947Z,97.40
2019-01-26T15:39:09.184Z,97.50
2019-01-26T15:43:34.044Z,97.60
2019-01-26T15:47:58.169Z,97.80
2019-01-26T15:52:24.153Z,98.00
2019-01-26T15:56:49.588Z,97.80
2019-01-26T16:01:14.086Z,98.10
2019-01-26T16:05:38.543Z,98.10
2019-01-26T16:10:06.493Z,98.20
2019-01-26T16:14:30.866Z,98.20
2019-01-26T16:18:55.465Z,98.20
2019-01-26T16:23:21.190Z,98.20
2019-01-26T16:27:45.485Z,98.30
2019-01-26T16:32:09.782Z,98.40
2019-01-26T16:36:33.774Z,98.50
2019-01-26T16:40:59.086Z,98.60
2019-01-26T16:45:29.010Z,98.60
2019-01-26T16:49:53.408Z,98.60
2019-01-26T16:54:17.292Z,98.50
2019-01-26T16:58:41.201Z,98.50
2019-01-26T17:03:05.300Z,98.50
2019-01-26T17:07:30.380Z,98.50
2019-01-26T17:11:55.493Z,98.50
2019-01-26T17:16:20.097Z,98.40
2019-01-26T17:20:44.288Z,98.40
2019-01-26T17:25:08.583Z,98.40
2019-01-26T17:29:32.795Z,98.30
2019-01-26T17:33:56.862Z,98.50
2019-01-26T17:38:21.175Z,98.60
2019-01-26T17:42:45.352Z,98.60
2019-01-26T17:47:10.004Z,98.50
2019-01-26T17:51:35.885Z,98.70
2019-01-26T17:56:00.282Z,98.90
2019-01-26T18:00:35.638Z,98.80
2019-01-26T18:05:02.415Z,98.80
2019-01-26T18:09:28.243Z,98.70
2019-01-26T18:13:53.130Z,98.70
2019-01-26T18:18:18.830Z,98.50
2019-01-26T18:22:43.455Z,98.60
2019-01-26T18:27:08.946Z,98.60
2019-01-26T18:31:33.125Z,99.00
2019-01-26T18:35:59.926Z,98.40
2019-01-26T18:40:32.613Z,98.50
2019-01-26T18:44:59.160Z,98.60
2019-01-26T18:49:23.279Z,98.60
2019-01-26T18:53:47.442Z,98.80
2019-01-26T18:58:11.638Z,98.30
2019-01-26T19:02:35.928Z,98.60
2019-01-26T19:07:00.428Z,98.50
2019-01-26T19:11:25.029Z,98.50
2019-01-26T19:15:50.951Z,98.50
2019-01-26T19:20:15.771Z,98.70
2019-01-26T19:24:40.472Z,98.60
2019-01-26T19:29:04.766Z,98.60
2019-01-26T19:33:29.196Z,98.70
2019-01-26T19:37:53.356Z,98.50
2019-01-26T19:42:17.549Z,98.60
2019-01-26T19:46:41.431Z,98.40
2019-01-26T19:51:09.956Z,98.40
2019-01-26T19:55:32.276Z,98.40
2019-01-26T19:59:57.695Z,98.40
2019-01-26T20:04:21.927Z,98.30
2019-01-26T20:08:48.988Z,98.30
2019-01-26T20:13:13.240Z,98.30
2019-01-26T20:17:37.329Z,98.30
2019-01-26T20:22:04.167Z,98.30
2019-01-26T20:26:29.087Z,98.20
2019-01-26T20:30:57.078Z,98.20
2019-01-26T20:35:22.416Z,98.20
2019-01-26T20:39:47.955Z,98.30
2019-01-26T20:44:12.414Z,98.30
2019-01-26T20:48:36.607Z,98.20
2019-01-26T20:53:01.413Z,98.30
2019-01-26T20:57:27.142Z,98.20
2019-01-26T21:01:51.539Z,98.20
2019-01-26T21:06:15.627Z,98.20
2019-01-26T21:10:41.405Z,98.20
2019-01-26T21:15:07.998Z,98.30
2019-01-26T21:19:32.405Z,98.30
2019-01-26T21:23:56.915Z,98.40
2019-01-26T21:28:21.232Z,98.30
2019-01-26T21:32:46.103Z,98.40
2019-01-26T21:37:10.439Z,98.30
2019-01-26T21:41:36.379Z,98.40
2019-01-26T21:46:00.668Z,98.50
2019-01-26T21:50:27.488Z,98.50
2019-01-26T21:54:51.980Z,98.50
2019-01-26T21:59:16.684Z,98.50
2019-01-26T22:03:40.875Z,98.60
2019-01-26T22:08:04.863Z,98.70
2019-01-26T22:12:28.750Z,98.70
2019-01-26T22:16:52.837Z,98.80
2019-01-26T22:21:17.028Z,98.80
2019-01-26T22:25:40.912Z,98.90
2019-01-26T22:30:11.148Z,99.20
2019-01-26T22:34:36.772Z,99.20
2019-01-26T22:39:01.596Z,99.30
2019-01-26T22:43:27.662Z,99.20
2019-01-26T22:47:52.013Z,99.30
2019-01-26T22:52:15.896Z,99.50
2019-01-26T22:56:41.103Z,99.50
2019-01-26T23:01:12.403Z,99.50
2019-01-26T23:05:44.035Z,99.50
2019-01-26T23:10:35.877Z,99.60
2019-01-26T23:15:36.624Z,99.60
2019-01-26T23:20:03.992Z,99.60
2019-01-26T23:24:50.507Z,99.70
2019-01-26T23:29:17.873Z,99.80
2019-01-26T23:33:43.190Z,99.90
2019-01-26T23:38:07.282Z,99.90
2019-01-26T23:42:31.677Z,99.90
2019-01-26T23:46:55.870Z,99.90
2019-01-26T23:51:19.857Z,99.90
2019-01-26T23:55:43.742Z,99.90
